sensor_id;sensor_type;location;lat;lon;timestamp;temperature;humidity
10388;DHT22;5240;51.128;4.566;2023-03-01T00:01:38;0.90;99.90
10388;DHT22;5240;51.128;4.566;2023-03-01T00:04:05;0.90;99.90
10388;DHT22;5240;51.128;4.566;2023-03-01T00:06:32;0.90;99.90
10388;DHT22;5240;51.128;4.566;2023-03-01T00:08:59;0.90;99.90
10388;DHT22;5240;51.128;4.566;2023-03-01T00:11:27;0.90;99.90
10388;DHT22;5240;51.128;4.566;2023-03-01T00:13:56;0.80;99.90
10388;DHT22;5240;51.128;4.566;2023-03-01T00:16:26;0.90;99.90
10388;DHT22;5240;51.128;4.566;2023-03-01T00:18:54;0.80;99.90
10388;DHT22;5240;51.128;4.566;2023-03-01T00:21:22;0.80;99.90
10388;DHT22;5240;51.128;4.566;2023-03-01T00:23:49;0.90;99.90
10388;DHT22;5240;51.128;4.566;2023-03-01T00:26:18;0.80;99.90
10388;DHT22;5240;51.128;4.566;2023-03-01T00:28:46;0.80;99.90
10388;DHT22;5240;51.128;4.566;2023-03-01T00:31:17;0.70;99.90
10388;DHT22;5240;51.128;4.566;2023-03-01T00:33:46;0.70;99.90
10388;DHT22;5240;51.128;4.566;2023-03-01T00:36:15;0.70;99.90
10388;DHT22;5240;51.128;4.566;2023-03-01T00:38:44;0.60;99.90
10388;DHT22;5240;51.128;4.566;2023-03-01T00:41:13;0.60;99.90
10388;DHT22;5240;51.128;4.566;2023-03-01T00:43:40;0.70;99.90
10388;DHT22;5240;51.128;4.566;2023-03-01T00:46:10;0.60;99.90
10388;DHT22;5240;51.128;4.566;2023-03-01T00:48:37;0.50;99.90
10388;DHT22;5240;51.128;4.566;2023-03-01T00:51:07;0.60;99.90
10388;DHT22;5240;51.128;4.566;2023-03-01T00:53:35;0.50;99.90
10388;DHT22;5240;51.128;4.566;2023-03-01T00:56:02;0.50;99.90
10388;DHT22;5240;51.128;4.566;2023-03-01T00:58:30;0.50;99.90
10388;DHT22;5240;51.128;4.566;2023-03-01T01:00:57;0.50;99.90
10388;DHT22;5240;51.128;4.566;2023-03-01T01:03:24;0.40;99.90
10388;DHT22;5240;51.128;4.566;2023-03-01T01:05:51;0.40;99.90
10388;DHT22;5240;51.128;4.566;2023-03-01T01:08:20;0.40;99.90
10388;DHT22;5240;51.128;4.566;2023-03-01T01:10:47;0.40;99.90
10388;DHT22;5240;51.128;4.566;2023-03-01T01:13:15;0.40;99.90
10388;DHT22;5240;51.128;4.566;2023-03-01T01:15:42;0.30;99.90
10388;DHT22;5240;51.128;4.566;2023-03-01T01:18:09;0.40;99.90
10388;DHT22;5240;51.128;4.566;2023-03-01T01:20:36;0.30;99.90
10388;DHT22;5240;51.128;4.566;2023-03-01T01:23:05;0.30;99.90
10388;DHT22;5240;51.128;4.566;2023-03-01T01:25:35;0.30;99.90
10388;DHT22;5240;51.128;4.566;2023-03-01T01:28:03;0.30;99.90
10388;DHT22;5240;51.128;4.566;2023-03-01T01:30:30;0.30;99.90
10388;DHT22;5240;51.128;4.566;2023-03-01T01:32:57;0.20;99.90
10388;DHT22;5240;51.128;4.566;2023-03-01T01:35:24;0.20;99.90
10388;DHT22;5240;51.128;4.566;2023-03-01T01:37:51;0.20;99.90
10388;DHT22;5240;51.128;4.566;2023-03-01T01:40:18;0.20;99.90
10388;DHT22;5240;51.128;4.566;2023-03-01T01:42:47;0.10;99.90
10388;DHT22;5240;51.128;4.566;2023-03-01T01:45:29;0.20;99.90
10388;DHT22;5240;51.128;4.566;2023-03-01T01:48:00;0.10;99.90
10388;DHT22;5240;51.128;4.566;2023-03-01T01:50:29;0.10;99.90
10388;DHT22;5240;51.128;4.566;2023-03-01T01:53:06;0.10;99.90
10388;DHT22;5240;51.128;4.566;2023-03-01T01:55:36;0.10;99.90
10388;DHT22;5240;51.128;4.566;2023-03-01T01:58:09;0.00;99.90
10388;DHT22;5240;51.128;4.566;2023-03-01T02:00:38;0.10;99.90
10388;DHT22;5240;51.128;4.566;2023-03-01T02:03:09;0.00;99.90
10388;DHT22;5240;51.128;4.566;2023-03-01T02:05:41;0.00;99.90
10388;DHT22;5240;51.128;4.566;2023-03-01T02:08:11;-0.10;99.90
10388;DHT22;5240;51.128;4.566;2023-03-01T02:10:39;-0.20;99.90
10388;DHT22;5240;51.128;4.566;2023-03-01T02:13:09;-0.20;99.90
10388;DHT22;5240;51.128;4.566;2023-03-01T02:15:38;-0.10;99.90
10388;DHT22;5240;51.128;4.566;2023-03-01T02:18:06;-0.20;99.90
10388;DHT22;5240;51.128;4.566;2023-03-01T02:20:38;-0.20;99.90
10388;DHT22;5240;51.128;4.566;2023-03-01T02:23:07;-0.30;99.90
10388;DHT22;5240;51.128;4.566;2023-03-01T02:25:41;-0.30;99.90
10388;DHT22;5240;51.128;4.566;2023-03-01T02:28:24;-0.30;99.90
10388;DHT22;5240;51.128;4.566;2023-03-01T02:30:52;-0.30;99.90
10388;DHT22;5240;51.128;4.566;2023-03-01T02:33:38;-0.40;99.90
10388;DHT22;5240;51.128;4.566;2023-03-01T02:36:09;-0.40;99.90
10388;DHT22;5240;51.128;4.566;2023-03-01T02:38:39;-0.40;99.90
10388;DHT22;5240;51.128;4.566;2023-03-01T02:41:08;-0.40;99.90
10388;DHT22;5240;51.128;4.566;2023-03-01T02:43:37;-0.50;99.90
10388;DHT22;5240;51.128;4.566;2023-03-01T02:46:06;-0.50;99.90
10388;DHT22;5240;51.128;4.566;2023-03-01T02:48:42;-0.50;99.90
10388;DHT22;5240;51.128;4.566;2023-03-01T02:51:16;-0.50;99.90
10388;DHT22;5240;51.128;4.566;2023-03-01T02:53:53;-0.50;99.90
10388;DHT22;5240;51.128;4.566;2023-03-01T02:56:23;-0.50;99.90
10388;DHT22;5240;51.128;4.566;2023-03-01T02:58:52;-0.50;99.90
10388;DHT22;5240;51.128;4.566;2023-03-01T03:01:20;-0.50;99.90
10388;DHT22;5240;51.128;4.566;2023-03-01T03:03:47;-0.50;99.90
10388;DHT22;5240;51.128;4.566;2023-03-01T03:06:14;-0.60;99.90
10388;DHT22;5240;51.128;4.566;2023-03-01T03:08:41;-0.60;99.90
10388;DHT22;5240;51.128;4.566;2023-03-01T03:11:09;-0.60;99.90
10388;DHT22;5240;51.128;4.566;2023-03-01T03:13:36;-0.60;99.90
10388;DHT22;5240;51.128;4.566;2023-03-01T03:16:14;-0.60;99.90
10388;DHT22;5240;51.128;4.566;2023-03-01T03:18:42;-0.60;99.90
10388;DHT22;5240;51.128;4.566;2023-03-01T03:21:09;-0.60;99.90
10388;DHT22;5240;51.128;4.566;2023-03-01T03:23:37;-0.60;99.90
10388;DHT22;5240;51.128;4.566;2023-03-01T03:26:05;-0.60;99.90
10388;DHT22;5240;51.128;4.566;2023-03-01T03:28:33;-0.60;99.90
10388;DHT22;5240;51.128;4.566;2023-03-01T03:31:00;-0.60;99.90
10388;DHT22;5240;51.128;4.566;2023-03-01T03:33:30;-0.60;99.90
10388;DHT22;5240;51.128;4.566;2023-03-01T03:35:58;-0.60;99.90
10388;DHT22;5240;51.128;4.566;2023-03-01T03:38:25;-0.60;99.90
10388;DHT22;5240;51.128;4.566;2023-03-01T03:40:59;-0.60;99.90
10388;DHT22;5240;51.128;4.566;2023-03-01T03:43:29;-0.60;99.90
10388;DHT22;5240;51.128;4.566;2023-03-01T03:45:57;-0.70;99.90
10388;DHT22;5240;51.128;4.566;2023-03-01T03:48:24;-0.70;99.90
10388;DHT22;5240;51.128;4.566;2023-03-01T03:50:54;-0.60;99.90
10388;DHT22;5240;51.128;4.566;2023-03-01T03:53:24;-0.70;99.90
10388;DHT22;5240;51.128;4.566;2023-03-01T03:55:52;-0.60;99.90
10388;DHT22;5240;51.128;4.566;2023-03-01T03:58:20;-0.60;99.90
10388;DHT22;5240;51.128;4.566;2023-03-01T04:00:50;-0.70;99.90
10388;DHT22;5240;51.128;4.566;2023-03-01T04:03:19;-0.60;99.90
10388;DHT22;5240;51.128;4.566;2023-03-01T04:05:46;-0.70;99.90
10388;DHT22;5240;51.128;4.566;2023-03-01T04:08:16;-0.60;99.90
10388;DHT22;5240;51.128;4.566;2023-03-01T04:10:46;-0.70;99.90
10388;DHT22;5240;51.128;4.566;2023-03-01T04:13:15;-0.70;99.90
10388;DHT22;5240;51.128;4.566;2023-03-01T04:15:44;-0.70;99.90
10388;DHT22;5240;51.128;4.566;2023-03-01T04:18:13;-0.70;99.90
10388;DHT22;5240;51.128;4.566;2023-03-01T04:20:41;-0.70;99.90
10388;DHT22;5240;51.128;4.566;2023-03-01T04:23:11;-0.80;99.90
10388;DHT22;5240;51.128;4.566;2023-03-01T04:25:45;-0.80;99.90
10388;DHT22;5240;51.128;4.566;2023-03-01T04:28:15;-0.80;99.90
10388;DHT22;5240;51.128;4.566;2023-03-01T04:30:42;-0.80;99.90
10388;DHT22;5240;51.128;4.566;2023-03-01T04:33:10;-0.90;99.90
10388;DHT22;5240;51.128;4.566;2023-03-01T04:35:38;-0.90;99.90
10388;DHT22;5240;51.128;4.566;2023-03-01T04:38:06;-0.90;99.90
10388;DHT22;5240;51.128;4.566;2023-03-01T04:40:33;-0.90;99.90
10388;DHT22;5240;51.128;4.566;2023-03-01T04:43:02;-0.90;99.90
10388;DHT22;5240;51.128;4.566;2023-03-01T04:45:31;-1.00;99.90
10388;DHT22;5240;51.128;4.566;2023-03-01T04:48:00;-1.00;99.90
10388;DHT22;5240;51.128;4.566;2023-03-01T04:50:27;-1.00;99.90
10388;DHT22;5240;51.128;4.566;2023-03-01T04:52:54;-1.00;99.90
10388;DHT22;5240;51.128;4.566;2023-03-01T04:55:24;-1.00;99.90
10388;DHT22;5240;51.128;4.566;2023-03-01T04:57:52;-1.00;99.90
10388;DHT22;5240;51.128;4.566;2023-03-01T05:00:22;-1.00;99.90
10388;DHT22;5240;51.128;4.566;2023-03-01T05:02:50;-1.10;99.90
10388;DHT22;5240;51.128;4.566;2023-03-01T05:05:25;-1.10;99.90
10388;DHT22;5240;51.128;4.566;2023-03-01T05:07:54;-1.10;99.90
10388;DHT22;5240;51.128;4.566;2023-03-01T05:10:22;-1.10;99.90
10388;DHT22;5240;51.128;4.566;2023-03-01T05:12:49;-1.10;99.90
10388;DHT22;5240;51.128;4.566;2023-03-01T05:15:17;-1.10;99.90
10388;DHT22;5240;51.128;4.566;2023-03-01T05:17:48;-1.20;99.90
10388;DHT22;5240;51.128;4.566;2023-03-01T05:20:16;-1.10;99.90
10388;DHT22;5240;51.128;4.566;2023-03-01T05:22:43;-1.10;99.90
10388;DHT22;5240;51.128;4.566;2023-03-01T05:25:10;-1.10;99.90
10388;DHT22;5240;51.128;4.566;2023-03-01T05:27:39;-1.10;99.90
10388;DHT22;5240;51.128;4.566;2023-03-01T05:30:08;-1.10;99.90
10388;DHT22;5240;51.128;4.566;2023-03-01T05:32:41;-1.10;99.90
10388;DHT22;5240;51.128;4.566;2023-03-01T05:35:12;-1.10;99.90
10388;DHT22;5240;51.128;4.566;2023-03-01T05:37:41;-1.10;99.90
10388;DHT22;5240;51.128;4.566;2023-03-01T05:40:10;-1.10;99.90
10388;DHT22;5240;51.128;4.566;2023-03-01T05:42:43;-1.20;99.90
10388;DHT22;5240;51.128;4.566;2023-03-01T05:45:11;-1.10;99.90
10388;DHT22;5240;51.128;4.566;2023-03-01T05:47:39;-1.20;99.90
10388;DHT22;5240;51.128;4.566;2023-03-01T05:50:13;-1.20;99.90
10388;DHT22;5240;51.128;4.566;2023-03-01T05:52:44;-1.10;99.90
10388;DHT22;5240;51.128;4.566;2023-03-01T05:55:12;-1.20;99.90
10388;DHT22;5240;51.128;4.566;2023-03-01T05:57:39;-1.20;99.90
10388;DHT22;5240;51.128;4.566;2023-03-01T06:00:07;-1.20;99.90
10388;DHT22;5240;51.128;4.566;2023-03-01T06:02:34;-1.20;99.90
10388;DHT22;5240;51.128;4.566;2023-03-01T06:05:01;-1.20;99.90
10388;DHT22;5240;51.128;4.566;2023-03-01T06:07:30;-1.30;99.90
10388;DHT22;5240;51.128;4.566;2023-03-01T06:09:57;-1.20;99.90
10388;DHT22;5240;51.128;4.566;2023-03-01T06:12:24;-1.30;99.90
10388;DHT22;5240;51.128;4.566;2023-03-01T06:14:51;-1.20;99.90
10388;DHT22;5240;51.128;4.566;2023-03-01T06:17:19;-1.20;99.90
10388;DHT22;5240;51.128;4.566;2023-03-01T06:19:46;-1.20;99.90
10388;DHT22;5240;51.128;4.566;2023-03-01T06:22:13;-1.30;99.90
10388;DHT22;5240;51.128;4.566;2023-03-01T06:24:42;-1.20;99.90
10388;DHT22;5240;51.128;4.566;2023-03-01T06:27:09;-1.30;99.90
10388;DHT22;5240;51.128;4.566;2023-03-01T06:29:36;-1.30;99.90
10388;DHT22;5240;51.128;4.566;2023-03-01T06:32:03;-1.20;99.90
10388;DHT22;5240;51.128;4.566;2023-03-01T06:34:30;-1.20;99.90
10388;DHT22;5240;51.128;4.566;2023-03-01T06:36:58;-1.20;99.90
10388;DHT22;5240;51.128;4.566;2023-03-01T06:39:25;-1.30;99.90
10388;DHT22;5240;51.128;4.566;2023-03-01T06:41:55;-1.30;99.90
10388;DHT22;5240;51.128;4.566;2023-03-01T06:44:22;-1.30;99.90
10388;DHT22;5240;51.128;4.566;2023-03-01T06:46:49;-1.40;99.90
10388;DHT22;5240;51.128;4.566;2023-03-01T06:49:16;-1.40;99.90
10388;DHT22;5240;51.128;4.566;2023-03-01T06:51:44;-1.40;99.90
10388;DHT22;5240;51.128;4.566;2023-03-01T06:54:12;-1.30;99.90
10388;DHT22;5240;51.128;4.566;2023-03-01T06:56:39;-1.20;99.90
10388;DHT22;5240;51.128;4.566;2023-03-01T06:59:07;-1.20;99.90
10388;DHT22;5240;51.128;4.566;2023-03-01T07:01:34;-1.20;99.90
10388;DHT22;5240;51.128;4.566;2023-03-01T07:04:02;-1.20;99.90
10388;DHT22;5240;51.128;4.566;2023-03-01T07:06:29;-1.10;99.90
10388;DHT22;5240;51.128;4.566;2023-03-01T07:08:56;-1.10;99.90
10388;DHT22;5240;51.128;4.566;2023-03-01T07:11:23;-1.00;99.90
10388;DHT22;5240;51.128;4.566;2023-03-01T07:13:50;-0.90;99.90
10388;DHT22;5240;51.128;4.566;2023-03-01T07:16:19;-0.80;99.90
10388;DHT22;5240;51.128;4.566;2023-03-01T07:18:46;-0.80;99.90
10388;DHT22;5240;51.128;4.566;2023-03-01T07:21:14;-0.70;99.90
10388;DHT22;5240;51.128;4.566;2023-03-01T07:23:42;-0.60;99.90
10388;DHT22;5240;51.128;4.566;2023-03-01T07:26:09;-0.50;99.90
10388;DHT22;5240;51.128;4.566;2023-03-01T07:28:36;-0.50;99.90
10388;DHT22;5240;51.128;4.566;2023-03-01T07:31:05;-0.50;99.90
10388;DHT22;5240;51.128;4.566;2023-03-01T07:36:10;-0.40;99.90
10388;DHT22;5240;51.128;4.566;2023-03-01T07:38:41;-0.40;99.90
10388;DHT22;5240;51.128;4.566;2023-03-01T07:41:29;-0.30;99.90
10388;DHT22;5240;51.128;4.566;2023-03-01T07:43:57;-0.20;99.90
10388;DHT22;5240;51.128;4.566;2023-03-01T07:46:25;-0.20;99.90
10388;DHT22;5240;51.128;4.566;2023-03-01T07:48:52;-0.10;99.90
10388;DHT22;5240;51.128;4.566;2023-03-01T07:51:20;0.00;99.90
10388;DHT22;5240;51.128;4.566;2023-03-01T07:53:48;0.10;99.90
10388;DHT22;5240;51.128;4.566;2023-03-01T07:56:16;0.30;99.90
10388;DHT22;5240;51.128;4.566;2023-03-01T07:58:44;0.50;99.90
10388;DHT22;5240;51.128;4.566;2023-03-01T08:01:14;0.80;99.90
10388;DHT22;5240;51.128;4.566;2023-03-01T08:03:41;1.00;99.90
10388;DHT22;5240;51.128;4.566;2023-03-01T08:06:10;1.20;99.90
10388;DHT22;5240;51.128;4.566;2023-03-01T08:08:43;1.60;99.90
10388;DHT22;5240;51.128;4.566;2023-03-01T08:11:11;2.10;99.90
10388;DHT22;5240;51.128;4.566;2023-03-01T08:13:39;2.40;99.90
10388;DHT22;5240;51.128;4.566;2023-03-01T08:16:08;2.60;99.90
10388;DHT22;5240;51.128;4.566;2023-03-01T08:18:36;2.90;99.90
10388;DHT22;5240;51.128;4.566;2023-03-01T08:21:05;3.00;99.90
10388;DHT22;5240;51.128;4.566;2023-03-01T08:23:32;3.10;99.90
10388;DHT22;5240;51.128;4.566;2023-03-01T08:26:14;3.30;99.90
10388;DHT22;5240;51.128;4.566;2023-03-01T08:28:42;3.30;99.90
10388;DHT22;5240;51.128;4.566;2023-03-01T08:31:17;3.40;99.90
10388;DHT22;5240;51.128;4.566;2023-03-01T08:33:45;3.80;99.90
10388;DHT22;5240;51.128;4.566;2023-03-01T08:36:16;4.20;99.90
10388;DHT22;5240;51.128;4.566;2023-03-01T08:38:43;4.60;99.90
10388;DHT22;5240;51.128;4.566;2023-03-01T08:41:13;4.80;99.90
10388;DHT22;5240;51.128;4.566;2023-03-01T08:43:41;5.00;99.90
10388;DHT22;5240;51.128;4.566;2023-03-01T08:46:13;5.10;99.90
10388;DHT22;5240;51.128;4.566;2023-03-01T08:48:41;4.90;99.90
10388;DHT22;5240;51.128;4.566;2023-03-01T08:53:45;5.50;99.90
10388;DHT22;5240;51.128;4.566;2023-03-01T08:56:15;5.50;99.90
10388;DHT22;5240;51.128;4.566;2023-03-01T08:58:57;5.60;99.90
10388;DHT22;5240;51.128;4.566;2023-03-01T09:01:24;5.80;99.90
10388;DHT22;5240;51.128;4.566;2023-03-01T09:04:06;6.10;99.90
10388;DHT22;5240;51.128;4.566;2023-03-01T09:06:35;6.20;99.90
10388;DHT22;5240;51.128;4.566;2023-03-01T09:09:23;6.20;99.90
10388;DHT22;5240;51.128;4.566;2023-03-01T09:17:55;7.20;99.90
10388;DHT22;5240;51.128;4.566;2023-03-01T09:20:22;7.70;99.90
10388;DHT22;5240;51.128;4.566;2023-03-01T09:22:50;7.20;99.90
10388;DHT22;5240;51.128;4.566;2023-03-01T09:25:19;7.20;99.90
10388;DHT22;5240;51.128;4.566;2023-03-01T09:28:08;7.70;99.90
10388;DHT22;5240;51.128;4.566;2023-03-01T09:30:51;7.20;99.90
10388;DHT22;5240;51.128;4.566;2023-03-01T09:33:20;7.30;99.90
10388;DHT22;5240;51.128;4.566;2023-03-01T09:35:56;7.50;99.90
10388;DHT22;5240;51.128;4.566;2023-03-01T09:38:26;7.10;99.90
10388;DHT22;5240;51.128;4.566;2023-03-01T09:40:54;7.10;99.90
10388;DHT22;5240;51.128;4.566;2023-03-01T09:43:31;7.30;99.90
10388;DHT22;5240;51.128;4.566;2023-03-01T09:46:14;7.60;99.90
10388;DHT22;5240;51.128;4.566;2023-03-01T09:52:03;8.50;99.90
10388;DHT22;5240;51.128;4.566;2023-03-01T09:57:18;8.60;99.90
10388;DHT22;5240;51.128;4.566;2023-03-01T10:00:00;9.10;99.90
10388;DHT22;5240;51.128;4.566;2023-03-01T10:02:37;9.30;99.90
10388;DHT22;5240;51.128;4.566;2023-03-01T10:05:14;9.50;99.90
10388;DHT22;5240;51.128;4.566;2023-03-01T10:07:47;10.00;99.90
10388;DHT22;5240;51.128;4.566;2023-03-01T10:10:28;10.10;99.90
10388;DHT22;5240;51.128;4.566;2023-03-01T10:23:23;9.90;99.90
10388;DHT22;5240;51.128;4.566;2023-03-01T10:26:02;9.40;99.90
10388;DHT22;5240;51.128;4.566;2023-03-01T10:28:42;9.90;99.90
10388;DHT22;5240;51.128;4.566;2023-03-01T10:31:13;10.40;99.90
10388;DHT22;5240;51.128;4.566;2023-03-01T10:33:43;11.10;99.90
10388;DHT22;5240;51.128;4.566;2023-03-01T10:36:10;11.10;99.90
10388;DHT22;5240;51.128;4.566;2023-03-01T10:38:56;11.00;99.90
10388;DHT22;5240;51.128;4.566;2023-03-01T10:41:26;10.90;99.90
10388;DHT22;5240;51.128;4.566;2023-03-01T10:43:58;11.00;99.90
10388;DHT22;5240;51.128;4.566;2023-03-01T10:46:28;11.30;99.90
10388;DHT22;5240;51.128;4.566;2023-03-01T10:49:07;11.50;99.90
10388;DHT22;5240;51.128;4.566;2023-03-01T10:51:40;10.70;99.90
10388;DHT22;5240;51.128;4.566;2023-03-01T10:54:17;10.30;99.90
10388;DHT22;5240;51.128;4.566;2023-03-01T10:56:47;9.60;99.90
10388;DHT22;5240;51.128;4.566;2023-03-01T10:59:26;8.90;99.90
10388;DHT22;5240;51.128;4.566;2023-03-01T11:04:30;7.20;99.90
10388;DHT22;5240;51.128;4.566;2023-03-01T11:17:38;5.90;99.90
10388;DHT22;5240;51.128;4.566;2023-03-01T11:20:18;5.70;99.90
10388;DHT22;5240;51.128;4.566;2023-03-01T11:22:52;5.80;99.90
10388;DHT22;5240;51.128;4.566;2023-03-01T11:25:24;5.90;99.90
10388;DHT22;5240;51.128;4.566;2023-03-01T11:27:52;5.90;99.90
10388;DHT22;5240;51.128;4.566;2023-03-01T11:30:24;5.90;99.90
10388;DHT22;5240;51.128;4.566;2023-03-01T11:33:11;5.80;99.90
10388;DHT22;5240;51.128;4.566;2023-03-01T11:35:47;5.70;99.90
10388;DHT22;5240;51.128;4.566;2023-03-01T11:38:47;5.80;99.90
10388;DHT22;5240;51.128;4.566;2023-03-01T11:41:16;5.80;99.90
10388;DHT22;5240;51.128;4.566;2023-03-01T11:43:50;5.70;99.90
10388;DHT22;5240;51.128;4.566;2023-03-01T11:46:43;5.90;99.90
10388;DHT22;5240;51.128;4.566;2023-03-01T11:49:31;6.00;99.90
10388;DHT22;5240;51.128;4.566;2023-03-01T11:52:03;5.80;99.90
10388;DHT22;5240;51.128;4.566;2023-03-01T11:54:42;5.70;99.90
10388;DHT22;5240;51.128;4.566;2023-03-01T11:57:17;5.80;99.90
10388;DHT22;5240;51.128;4.566;2023-03-01T12:03:00;6.00;99.90
10388;DHT22;5240;51.128;4.566;2023-03-01T12:08:42;6.00;99.90
10388;DHT22;5240;51.128;4.566;2023-03-01T12:11:19;5.90;99.90
10388;DHT22;5240;51.128;4.566;2023-03-01T12:14:17;6.00;99.90
10388;DHT22;5240;51.128;4.566;2023-03-01T12:16:56;6.00;99.90
10388;DHT22;5240;51.128;4.566;2023-03-01T12:19:37;6.10;99.90
10388;DHT22;5240;51.128;4.566;2023-03-01T12:22:20;6.20;99.90
10388;DHT22;5240;51.128;4.566;2023-03-01T12:25:06;6.20;99.90
10388;DHT22;5240;51.128;4.566;2023-03-01T12:27:51;6.20;99.90
10388;DHT22;5240;51.128;4.566;2023-03-01T12:30:32;6.30;99.90
10388;DHT22;5240;51.128;4.566;2023-03-01T12:33:14;6.30;99.90
10388;DHT22;5240;51.128;4.566;2023-03-01T12:36:18;6.20;99.90
10388;DHT22;5240;51.128;4.566;2023-03-01T12:38:58;6.10;99.90
10388;DHT22;5240;51.128;4.566;2023-03-01T12:41:40;6.10;99.90
10388;DHT22;5240;51.128;4.566;2023-03-01T12:44:29;6.20;99.90
10388;DHT22;5240;51.128;4.566;2023-03-01T12:47:12;6.30;99.90
10388;DHT22;5240;51.128;4.566;2023-03-01T12:49:46;6.50;99.90
10388;DHT22;5240;51.128;4.566;2023-03-01T12:52:20;6.50;99.90
10388;DHT22;5240;51.128;4.566;2023-03-01T12:54:52;6.50;99.90
10388;DHT22;5240;51.128;4.566;2023-03-01T12:57:25;6.50;99.90
10388;DHT22;5240;51.128;4.566;2023-03-01T13:00:05;6.60;99.90
10388;DHT22;5240;51.128;4.566;2023-03-01T13:02:44;6.60;99.90
10388;DHT22;5240;51.128;4.566;2023-03-01T13:05:24;6.70;99.90
10388;DHT22;5240;51.128;4.566;2023-03-01T13:08:00;6.70;99.90
10388;DHT22;5240;51.128;4.566;2023-03-01T13:10:34;6.70;99.90
10388;DHT22;5240;51.128;4.566;2023-03-01T13:13:18;6.70;99.90
10388;DHT22;5240;51.128;4.566;2023-03-01T13:15:46;6.60;99.90
10388;DHT22;5240;51.128;4.566;2023-03-01T13:18:31;6.60;99.90
10388;DHT22;5240;51.128;4.566;2023-03-01T13:21:00;6.60;99.90
10388;DHT22;5240;51.128;4.566;2023-03-01T13:23:31;6.70;99.90
10388;DHT22;5240;51.128;4.566;2023-03-01T13:26:07;6.80;99.90
10388;DHT22;5240;51.128;4.566;2023-03-01T13:34:51;6.60;99.90
10388;DHT22;5240;51.128;4.566;2023-03-01T13:37:27;6.60;99.90
10388;DHT22;5240;51.128;4.566;2023-03-01T13:39:57;6.60;99.90
10388;DHT22;5240;51.128;4.566;2023-03-01T13:42:35;6.50;99.90
10388;DHT22;5240;51.128;4.566;2023-03-01T13:45:12;6.40;99.90
10388;DHT22;5240;51.128;4.566;2023-03-01T13:47:42;6.40;99.90
10388;DHT22;5240;51.128;4.566;2023-03-01T13:50:18;6.50;99.90
10388;DHT22;5240;51.128;4.566;2023-03-01T13:52:50;6.60;99.90
10388;DHT22;5240;51.128;4.566;2023-03-01T13:55:21;6.70;99.90
10388;DHT22;5240;51.128;4.566;2023-03-01T13:57:54;6.70;99.90
10388;DHT22;5240;51.128;4.566;2023-03-01T14:00:34;6.70;99.90
10388;DHT22;5240;51.128;4.566;2023-03-01T14:03:04;6.80;99.90
10388;DHT22;5240;51.128;4.566;2023-03-01T14:05:32;6.70;99.90
10388;DHT22;5240;51.128;4.566;2023-03-01T14:08:01;6.70;99.90
10388;DHT22;5240;51.128;4.566;2023-03-01T14:10:40;6.70;99.90
10388;DHT22;5240;51.128;4.566;2023-03-01T14:13:24;6.70;99.90
10388;DHT22;5240;51.128;4.566;2023-03-01T14:16:06;6.70;99.90
10388;DHT22;5240;51.128;4.566;2023-03-01T14:18:39;6.70;99.90
10388;DHT22;5240;51.128;4.566;2023-03-01T14:21:08;6.60;99.90
10388;DHT22;5240;51.128;4.566;2023-03-01T14:23:39;6.70;99.90
10388;DHT22;5240;51.128;4.566;2023-03-01T14:26:08;6.70;99.90
10388;DHT22;5240;51.128;4.566;2023-03-01T14:28:39;6.70;99.90
10388;DHT22;5240;51.128;4.566;2023-03-01T14:31:32;6.60;99.90
10388;DHT22;5240;51.128;4.566;2023-03-01T14:34:00;6.60;99.90
10388;DHT22;5240;51.128;4.566;2023-03-01T14:36:29;6.60;99.90
10388;DHT22;5240;51.128;4.566;2023-03-01T14:38:57;6.60;99.90
10388;DHT22;5240;51.128;4.566;2023-03-01T14:41:32;6.60;99.90
10388;DHT22;5240;51.128;4.566;2023-03-01T14:44:03;6.50;99.90
10388;DHT22;5240;51.128;4.566;2023-03-01T14:46:33;6.50;99.90
10388;DHT22;5240;51.128;4.566;2023-03-01T14:49:03;6.60;99.90
10388;DHT22;5240;51.128;4.566;2023-03-01T14:51:35;6.60;99.90
10388;DHT22;5240;51.128;4.566;2023-03-01T14:54:02;6.70;99.90
10388;DHT22;5240;51.128;4.566;2023-03-01T14:56:43;6.70;99.90
10388;DHT22;5240;51.128;4.566;2023-03-01T14:59:12;6.70;99.90
10388;DHT22;5240;51.128;4.566;2023-03-01T15:01:40;6.70;99.90
10388;DHT22;5240;51.128;4.566;2023-03-01T15:04:11;6.60;99.90
10388;DHT22;5240;51.128;4.566;2023-03-01T15:06:39;6.60;99.90
10388;DHT22;5240;51.128;4.566;2023-03-01T15:09:11;6.60;99.90
10388;DHT22;5240;51.128;4.566;2023-03-01T15:11:38;6.60;99.90
10388;DHT22;5240;51.128;4.566;2023-03-01T15:14:29;6.60;99.90
10388;DHT22;5240;51.128;4.566;2023-03-01T15:17:13;6.70;99.90
10388;DHT22;5240;51.128;4.566;2023-03-01T15:19:41;6.70;99.90
10388;DHT22;5240;51.128;4.566;2023-03-01T15:22:14;6.70;99.90
10388;DHT22;5240;51.128;4.566;2023-03-01T15:24:46;6.70;99.90
10388;DHT22;5240;51.128;4.566;2023-03-01T15:27:16;6.60;99.90
10388;DHT22;5240;51.128;4.566;2023-03-01T15:29:50;6.60;99.90
10388;DHT22;5240;51.128;4.566;2023-03-01T15:32:26;6.60;99.90
10388;DHT22;5240;51.128;4.566;2023-03-01T15:34:53;6.60;99.90
10388;DHT22;5240;51.128;4.566;2023-03-01T15:37:45;6.60;99.90
10388;DHT22;5240;51.128;4.566;2023-03-01T15:40:22;6.60;99.90
10388;DHT22;5240;51.128;4.566;2023-03-01T15:42:57;6.60;99.90
10388;DHT22;5240;51.128;4.566;2023-03-01T15:45:27;6.50;99.90
10388;DHT22;5240;51.128;4.566;2023-03-01T15:47:56;6.60;99.90
10388;DHT22;5240;51.128;4.566;2023-03-01T15:50:25;6.60;99.90
10388;DHT22;5240;51.128;4.566;2023-03-01T15:52:53;6.60;99.90
10388;DHT22;5240;51.128;4.566;2023-03-01T15:55:23;6.60;99.90
10388;DHT22;5240;51.128;4.566;2023-03-01T15:57:58;6.60;99.90
10388;DHT22;5240;51.128;4.566;2023-03-01T16:00:28;6.60;99.90
10388;DHT22;5240;51.128;4.566;2023-03-01T16:02:55;6.50;99.90
10388;DHT22;5240;51.128;4.566;2023-03-01T16:05:25;6.50;99.90
10388;DHT22;5240;51.128;4.566;2023-03-01T16:07:53;6.50;99.90
10388;DHT22;5240;51.128;4.566;2023-03-01T16:10:21;6.50;99.90
10388;DHT22;5240;51.128;4.566;2023-03-01T16:12:49;6.50;99.90
10388;DHT22;5240;51.128;4.566;2023-03-01T16:15:19;6.50;99.90
10388;DHT22;5240;51.128;4.566;2023-03-01T16:17:48;6.40;99.90
10388;DHT22;5240;51.128;4.566;2023-03-01T16:20:16;6.40;99.90
10388;DHT22;5240;51.128;4.566;2023-03-01T16:22:43;6.40;99.90
10388;DHT22;5240;51.128;4.566;2023-03-01T16:25:11;6.40;99.90
10388;DHT22;5240;51.128;4.566;2023-03-01T16:27:41;6.40;99.90
10388;DHT22;5240;51.128;4.566;2023-03-01T16:30:10;6.40;99.90
10388;DHT22;5240;51.128;4.566;2023-03-01T16:32:38;6.40;99.90
10388;DHT22;5240;51.128;4.566;2023-03-01T16:35:08;6.40;99.90
10388;DHT22;5240;51.128;4.566;2023-03-01T16:37:36;6.30;99.90
10388;DHT22;5240;51.128;4.566;2023-03-01T16:40:04;6.30;99.90
10388;DHT22;5240;51.128;4.566;2023-03-01T16:42:33;6.20;99.90
10388;DHT22;5240;51.128;4.566;2023-03-01T16:45:01;6.20;99.90
10388;DHT22;5240;51.128;4.566;2023-03-01T16:47:28;6.10;99.90
10388;DHT22;5240;51.128;4.566;2023-03-01T16:49:56;6.10;99.90
10388;DHT22;5240;51.128;4.566;2023-03-01T16:52:24;6.10;99.90
10388;DHT22;5240;51.128;4.566;2023-03-01T16:54:51;6.00;99.90
10388;DHT22;5240;51.128;4.566;2023-03-01T16:57:18;6.00;99.90
10388;DHT22;5240;51.128;4.566;2023-03-01T16:59:46;6.00;99.90
10388;DHT22;5240;51.128;4.566;2023-03-01T17:02:13;5.90;99.90
10388;DHT22;5240;51.128;4.566;2023-03-01T17:04:42;5.90;99.90
10388;DHT22;5240;51.128;4.566;2023-03-01T17:07:09;5.80;99.90
10388;DHT22;5240;51.128;4.566;2023-03-01T17:09:37;5.80;99.90
10388;DHT22;5240;51.128;4.566;2023-03-01T17:12:04;5.80;99.90
10388;DHT22;5240;51.128;4.566;2023-03-01T17:14:32;5.70;99.90